createdAt,value
2022-12-05T00:01:27.391Z,30.40
2022-12-05T00:03:55.998Z,30.00
2022-12-05T00:06:24.007Z,29.60
2022-12-05T00:08:51.008Z,29.40
2022-12-05T00:11:23.365Z,29.50
2022-12-05T00:13:50.765Z,29.90
2022-12-05T00:16:20.759Z,30.20
2022-12-05T00:18:48.215Z,30.10
2022-12-05T00:21:17.633Z,29.70
2022-12-05T00:23:44.966Z,29.90
2022-12-05T00:26:12.804Z,30.10
2022-12-05T00:28:40.600Z,30.40
2022-12-05T00:31:10.444Z,30.10
2022-12-05T00:33:37.871Z,30.40
2022-12-05T00:36:11.204Z,29.80
2022-12-05T00:38:38.685Z,30.10
2022-12-05T00:41:07.384Z,30.40
2022-12-05T00:43:34.912Z,30.00
2022-12-05T00:46:07.139Z,29.70
2022-12-05T00:48:34.852Z,29.30
2022-12-05T00:51:06.018Z,28.90
2022-12-05T00:53:33.464Z,29.60
2022-12-05T00:56:11.730Z,29.20
2022-12-05T00:58:38.706Z,29.50
2022-12-05T01:01:20.916Z,30.20
2022-12-05T01:03:49.109Z,30.40
2022-12-05T01:06:17.192Z,30.50
2022-12-05T01:08:44.298Z,29.80
2022-12-05T01:11:14.382Z,29.60
2022-12-05T01:13:41.418Z,29.20
2022-12-05T01:16:43.213Z,29.70
2022-12-05T01:19:14.301Z,30.40
2022-12-05T01:21:41.718Z,29.60
2022-12-05T01:24:10.065Z,29.50
2022-12-05T01:26:37.717Z,29.10
2022-12-05T01:29:05.109Z,28.80
2022-12-05T01:31:35.205Z,29.40
2022-12-05T01:34:04.504Z,29.90
2022-12-05T01:36:32.067Z,29.20
2022-12-05T01:38:59.452Z,28.60
2022-12-05T01:41:30.674Z,28.50
2022-12-05T01:43:59.332Z,28.80
2022-12-05T01:46:29.178Z,29.40
2022-12-05T01:49:04.218Z,29.30
2022-12-05T01:51:33.784Z,29.10
2022-12-05T01:54:01.637Z,29.30
2022-12-05T01:56:28.961Z,29.30
2022-12-05T01:58:56.825Z,29.30
2022-12-05T02:01:23.795Z,28.90
2022-12-05T02:03:55.990Z,28.40
2022-12-05T02:06:23.741Z,28.40
2022-12-05T02:08:52.469Z,28.20
2022-12-05T02:11:20.422Z,28.60
2022-12-05T02:14:11.527Z,28.50
2022-12-05T02:16:49.712Z,28.60
2022-12-05T02:19:40.663Z,29.70
2022-12-05T02:22:26.113Z,29.40
2022-12-05T02:25:14.949Z,28.90
2022-12-05T02:27:53.732Z,28.80
2022-12-05T02:30:24.933Z,28.30
2022-12-05T02:33:27.075Z,28.10
2022-12-05T02:36:10.288Z,28.10
2022-12-05T02:39:02.535Z,28.60
2022-12-05T02:41:38.026Z,29.20
2022-12-05T02:44:15.085Z,29.80
2022-12-05T02:46:44.804Z,29.70
2022-12-05T02:49:16.477Z,29.80
2022-12-05T02:51:45.879Z,29.90
2022-12-05T02:54:24.516Z,30.10
2022-12-05T02:56:53.298Z,29.90
2022-12-05T02:59:23.534Z,30.00
2022-12-05T03:01:51.692Z,29.70
2022-12-05T03:04:21.604Z,29.10
2022-12-05T03:07:10.930Z,29.20
2022-12-05T03:09:42.021Z,29.50
2022-12-05T03:12:08.766Z,29.30
2022-12-05T03:14:47.283Z,30.10
2022-12-05T03:17:19.822Z,29.90
2022-12-05T03:20:27.545Z,29.20
2022-12-05T03:22:54.407Z,29.10
2022-12-05T03:25:25.433Z,28.80
2022-12-05T03:27:53.224Z,28.70
2022-12-05T03:30:22.626Z,28.60
2022-12-05T03:32:59.596Z,27.80
2022-12-05T03:35:49.622Z,27.90
2022-12-05T03:38:24.732Z,28.00
2022-12-05T03:41:00.692Z,27.20
2022-12-05T03:43:44.655Z,26.70
2022-12-05T03:46:30.156Z,27.60
2022-12-05T03:49:12.786Z,27.20
2022-12-05T03:52:00.569Z,27.30
2022-12-05T03:54:33.229Z,27.30
2022-12-05T03:57:16.732Z,27.30
2022-12-05T03:59:49.680Z,26.90
2022-12-05T04:02:27.294Z,27.60
2022-12-05T04:05:13.647Z,26.70
2022-12-05T04:07:42.362Z,26.20
2022-12-05T04:10:16.010Z,26.70
2022-12-05T04:12:44.459Z,27.10
2022-12-05T04:15:19.589Z,26.50
2022-12-05T04:17:53.441Z,26.90
2022-12-05T04:20:50.645Z,27.20
2022-12-05T04:23:17.877Z,27.80
2022-12-05T04:26:17.454Z,27.70
2022-12-05T04:28:57.029Z,27.80
2022-12-05T04:31:31.661Z,28.20
2022-12-05T04:34:10.437Z,28.50
2022-12-05T04:36:40.871Z,27.50
2022-12-05T04:39:38.370Z,27.10
2022-12-05T04:42:09.702Z,26.40
2022-12-05T04:44:43.684Z,27.10
2022-12-05T04:47:15.072Z,27.50
2022-12-05T04:49:48.045Z,28.20
2022-12-05T04:52:19.452Z,28.40
2022-12-05T04:55:00.922Z,29.20
2022-12-05T04:57:54.102Z,28.80
2022-12-05T05:00:21.098Z,28.30
2022-12-05T05:03:11.290Z,27.90
2022-12-05T05:05:39.360Z,28.20
2022-12-05T05:08:17.388Z,28.40
2022-12-05T05:11:07.079Z,28.00
2022-12-05T05:13:34.209Z,27.10
2022-12-05T05:16:01.123Z,26.70
2022-12-05T05:18:28.032Z,27.00
2022-12-05T05:20:55.021Z,27.70
2022-12-05T05:23:21.871Z,28.20
2022-12-05T05:25:56.466Z,28.40
2022-12-05T05:28:23.408Z,28.10
2022-12-05T05:30:50.386Z,28.00
2022-12-05T05:33:17.410Z,28.70
2022-12-05T05:35:44.342Z,29.20
2022-12-05T05:38:11.270Z,28.70
2022-12-05T05:40:38.205Z,28.80
2022-12-05T05:43:05.352Z,28.50
2022-12-05T05:45:32.964Z,28.70
2022-12-05T05:47:59.932Z,28.50
2022-12-05T05:50:26.825Z,28.00
2022-12-05T05:52:53.675Z,28.00
2022-12-05T05:55:20.712Z,28.80
2022-12-05T05:57:47.628Z,27.90
2022-12-05T06:00:15.234Z,27.60
2022-12-05T06:02:42.717Z,27.70
2022-12-05T06:05:09.970Z,28.00
2022-12-05T06:07:36.892Z,28.60
2022-12-05T06:10:04.812Z,27.60
2022-12-05T06:12:31.684Z,27.30
2022-12-05T06:14:58.651Z,28.30
2022-12-05T06:17:25.586Z,29.10
2022-12-05T06:19:52.470Z,29.90
2022-12-05T06:22:19.385Z,29.80
2022-12-05T06:24:46.329Z,29.40
2022-12-05T06:27:13.488Z,28.70
2022-12-05T06:29:40.642Z,28.40
2022-12-05T06:32:07.665Z,27.90
2022-12-05T06:34:35.602Z,28.80
2022-12-05T06:37:02.578Z,29.00
2022-12-05T06:39:29.580Z,28.20
2022-12-05T06:41:56.645Z,28.10
2022-12-05T06:44:26.984Z,28.60
2022-12-05T06:46:54.513Z,28.60
2022-12-05T06:49:27.856Z,29.10
2022-12-05T06:51:56.975Z,28.90
2022-12-05T06:54:23.963Z,28.70
2022-12-05T06:56:51.063Z,28.60
2022-12-05T06:59:17.937Z,27.90
2022-12-05T07:01:46.545Z,26.90
2022-12-05T07:04:24.303Z,26.80
2022-12-05T07:06:53.370Z,26.30
2022-12-05T07:09:23.082Z,27.10
2022-12-05T07:11:51.198Z,27.30
2022-12-05T07:14:45.990Z,27.70
2022-12-05T07:17:05.761Z,27.90
2022-12-05T07:19:32.701Z,28.20
2022-12-05T07:21:59.627Z,28.00
2022-12-05T07:24:26.872Z,28.30
2022-12-05T07:26:53.876Z,29.10
2022-12-05T07:29:20.720Z,29.50
2022-12-05T07:31:47.677Z,29.20
2022-12-05T07:34:14.573Z,28.70
2022-12-05T07:36:41.875Z,29.10
2022-12-05T07:39:09.917Z,28.70
2022-12-05T07:41:36.806Z,29.00
2022-12-05T07:44:03.816Z,28.80
2022-12-05T07:46:30.763Z,28.90
2022-12-05T07:48:57.721Z,29.50
2022-12-05T07:51:24.922Z,29.80
2022-12-05T07:53:52.763Z,29.80
2022-12-05T07:56:20.039Z,29.70
2022-12-05T07:58:49.148Z,29.80
2022-12-05T08:01:22.024Z,29.30
2022-12-05T08:03:49.548Z,29.80
2022-12-05T08:06:28.782Z,30.00
2022-12-05T08:08:56.748Z,28.90
2022-12-05T08:11:27.426Z,28.30
2022-12-05T08:13:54.672Z,27.90
2022-12-05T08:16:25.102Z,27.50
2022-12-05T08:19:00.553Z,28.00
2022-12-05T08:21:29.238Z,28.60
2022-12-05T08:23:56.566Z,28.90
2022-12-05T08:26:26.740Z,29.20
2022-12-05T08:29:02.373Z,28.90
2022-12-05T08:31:31.342Z,28.20
2022-12-05T08:34:00.224Z,27.60
2022-12-05T08:36:31.001Z,27.80
2022-12-05T08:39:04.380Z,28.10
2022-12-05T08:41:32.040Z,28.50
2022-12-05T08:44:08.069Z,29.10
2022-12-05T08:46:37.382Z,28.80
2022-12-05T08:49:05.934Z,28.60
2022-12-05T08:51:33.137Z,28.60
2022-12-05T08:54:02.866Z,28.10
2022-12-05T08:56:29.966Z,27.80
2022-12-05T08:59:04.556Z,28.30
2022-12-05T09:01:33.757Z,28.70
2022-12-05T09:04:01.608Z,28.90
2022-12-05T09:06:29.776Z,29.00
2022-12-05T09:08:59.185Z,28.40
2022-12-05T09:11:29.348Z,28.90
2022-12-05T09:13:57.945Z,29.70
2022-12-05T09:16:35.246Z,28.90
2022-12-05T09:19:04.595Z,29.50
2022-12-05T09:21:32.452Z,29.80
2022-12-05T09:24:00.893Z,30.30
2022-12-05T09:26:30.024Z,30.50
2022-12-05T09:28:57.417Z,30.20
2022-12-05T09:31:27.371Z,30.60
2022-12-05T09:33:55.102Z,31.00
2022-12-05T09:36:28.380Z,30.70
2022-12-05T09:38:59.353Z,30.60
2022-12-05T09:42:06.245Z,29.80
2022-12-05T09:44:42.156Z,29.40
2022-12-05T09:47:28.567Z,29.40
2022-12-05T09:50:22.782Z,29.50
2022-12-05T09:53:11.079Z,30.20
2022-12-05T09:55:43.923Z,30.50
2022-12-05T09:58:26.470Z,30.10
2022-12-05T10:01:00.494Z,30.20
2022-12-05T10:03:43.992Z,30.50
2022-12-05T10:06:29.191Z,30.80
2022-12-05T10:09:08.865Z,30.80
2022-12-05T10:11:41.739Z,31.20
2022-12-05T10:14:50.227Z,31.50
2022-12-05T10:17:28.954Z,31.30
2022-12-05T10:20:00.502Z,30.90
2022-12-05T10:22:51.081Z,30.80
2022-12-05T10:25:21.582Z,31.00
2022-12-05T10:27:57.138Z,31.10
2022-12-05T10:30:26.018Z,31.20
2022-12-05T10:33:00.405Z,31.30
2022-12-05T10:35:32.411Z,31.60
2022-12-05T10:38:04.684Z,31.60
2022-12-05T10:40:36.321Z,31.20
2022-12-05T10:43:08.986Z,31.10
2022-12-05T10:45:46.549Z,31.10
2022-12-05T10:48:16.350Z,31.30
2022-12-05T10:50:45.224Z,31.40
2022-12-05T10:53:43.098Z,31.30
2022-12-05T10:56:44.084Z,31.50
2022-12-05T10:59:16.759Z,31.60
2022-12-05T11:01:53.320Z,31.30
2022-12-05T11:04:23.247Z,31.20
2022-12-05T11:07:03.157Z,31.60
2022-12-05T11:09:36.342Z,31.80
2022-12-05T11:12:09.273Z,31.60
2022-12-05T11:14:36.520Z,31.70
2022-12-05T11:17:05.320Z,31.80
2022-12-05T11:19:33.241Z,31.40
2022-12-05T11:22:01.264Z,31.80
2022-12-05T11:24:29.998Z,32.00
2022-12-05T11:26:59.204Z,31.60
2022-12-05T11:29:37.671Z,31.90
2022-12-05T11:32:16.699Z,31.70
2022-12-05T11:34:52.147Z,31.50
2022-12-05T11:37:24.415Z,31.60
2022-12-05T11:39:52.468Z,31.40
2022-12-05T11:42:33.997Z,31.10
2022-12-05T11:45:19.409Z,30.60
2022-12-05T11:48:01.094Z,30.40
2022-12-05T11:50:50.396Z,30.40
2022-12-05T11:53:53.055Z,30.50
2022-12-05T11:56:39.354Z,30.80
2022-12-05T11:59:27.495Z,30.90
2022-12-05T12:02:03.325Z,30.80
2022-12-05T12:04:42.116Z,30.80
2022-12-05T12:07:37.232Z,30.20
2022-12-05T12:10:10.407Z,30.60
2022-12-05T12:13:03.873Z,30.00
2022-12-05T12:15:49.073Z,29.20
2022-12-05T12:18:45.625Z,29.30
2022-12-05T12:21:24.676Z,30.10
2022-12-05T12:24:25.031Z,29.60
2022-12-05T12:27:22.748Z,29.40
2022-12-05T12:30:01.546Z,28.80
2022-12-05T12:32:49.278Z,29.20
2022-12-05T12:35:26.675Z,29.80
2022-12-05T12:38:17.691Z,29.80
2022-12-05T12:40:58.255Z,30.40
2022-12-05T12:43:54.876Z,30.60
2022-12-05T12:46:52.911Z,30.30
2022-12-05T12:49:34.501Z,29.80
2022-12-05T12:52:23.610Z,30.40
2022-12-05T12:55:17.568Z,30.50
2022-12-05T12:57:56.746Z,30.00
2022-12-05T13:00:44.612Z,30.50
2022-12-05T13:03:18.665Z,31.10
2022-12-05T13:06:02.668Z,31.40
2022-12-05T13:08:48.916Z,30.50
2022-12-05T13:11:17.461Z,30.60
2022-12-05T13:13:49.989Z,30.50
2022-12-05T13:16:28.790Z,30.80
2022-12-05T13:18:57.628Z,31.10
2022-12-05T13:21:26.362Z,30.90
2022-12-05T13:23:57.392Z,31.30
2022-12-05T13:26:24.412Z,31.60
2022-12-05T13:28:57.898Z,31.50
2022-12-05T13:31:43.713Z,31.40
2022-12-05T13:34:45.820Z,31.40
2022-12-05T13:37:42.448Z,31.40
2022-12-05T13:40:50.534Z,31.40
2022-12-05T13:43:24.203Z,31.30
2022-12-05T13:46:08.670Z,31.40
2022-12-05T13:48:42.865Z,31.30
2022-12-05T13:51:22.706Z,31.40
2022-12-05T13:53:58.336Z,31.30
2022-12-05T13:56:45.639Z,31.80
2022-12-05T13:59:12.805Z,31.80
2022-12-05T14:01:47.671Z,31.60
2022-12-05T14:04:51.002Z,31.40
2022-12-05T14:07:42.157Z,31.60
2022-12-05T14:10:13.108Z,31.50
2022-12-05T14:12:47.419Z,31.60
2022-12-05T14:15:43.235Z,31.60
2022-12-05T14:18:30.345Z,31.60
2022-12-05T14:21:03.244Z,31.70
2022-12-05T14:23:39.415Z,30.90
2022-12-05T14:26:24.589Z,31.10
2022-12-05T14:29:25.458Z,31.40
2022-12-05T14:32:19.879Z,31.50
2022-12-05T14:35:02.810Z,31.40
2022-12-05T14:37:34.859Z,31.30
2022-12-05T14:40:21.829Z,31.30
2022-12-05T14:43:02.161Z,31.00
2022-12-05T14:45:42.294Z,31.10
2022-12-05T14:48:15.448Z,30.50
2022-12-05T14:50:49.891Z,30.60
2022-12-05T14:53:36.959Z,30.50
2022-12-05T14:56:23.399Z,30.40
2022-12-05T14:58:57.052Z,30.50
2022-12-05T15:01:32.893Z,30.90
2022-12-05T15:03:59.864Z,30.90
2022-12-05T15:06:27.713Z,30.90
2022-12-05T15:09:21.188Z,30.60
2022-12-05T15:11:46.163Z,30.60
2022-12-05T15:14:23.216Z,30.60
2022-12-05T15:16:53.911Z,30.90
2022-12-05T15:19:42.464Z,30.80
2022-12-05T15:22:13.738Z,30.90
2022-12-05T15:24:40.896Z,30.80
2022-12-05T15:27:14.576Z,30.30
2022-12-05T15:29:41.654Z,30.30
2022-12-05T15:32:11.342Z,30.30
2022-12-05T15:35:00.205Z,30.50
2022-12-05T15:37:37.363Z,30.20
2022-12-05T15:40:04.923Z,29.70
2022-12-05T15:42:34.765Z,30.10
2022-12-05T15:45:34.233Z,30.10
2022-12-05T15:48:06.945Z,30.10
2022-12-05T15:50:36.016Z,30.30
2022-12-05T15:53:14.142Z,30.20
2022-12-05T15:55:48.238Z,30.50
2022-12-05T15:58:27.702Z,30.90
2022-12-05T16:01:18.710Z,31.20
2022-12-05T16:04:13.264Z,30.80
2022-12-05T16:06:45.422Z,30.90
2022-12-05T16:09:18.827Z,30.90
2022-12-05T16:11:52.258Z,30.90
2022-12-05T16:14:37.168Z,30.90
2022-12-05T16:17:13.277Z,31.10
2022-12-05T16:19:40.351Z,31.30
2022-12-05T16:22:16.617Z,31.30
2022-12-05T16:24:48.581Z,31.30
2022-12-05T16:27:17.083Z,31.30
2022-12-05T16:29:45.252Z,31.50
2022-12-05T16:32:23.930Z,31.70
2022-12-05T16:34:51.541Z,31.80
2022-12-05T16:37:27.903Z,31.80
2022-12-05T16:39:55.764Z,31.70
2022-12-05T16:42:26.425Z,31.30
2022-12-05T16:45:03.450Z,31.10
2022-12-05T16:47:42.516Z,31.00
2022-12-05T16:50:35.139Z,31.10
2022-12-05T16:53:10.808Z,31.20
2022-12-05T16:55:38.707Z,31.40
2022-12-05T16:58:06.400Z,31.60
2022-12-05T17:00:33.396Z,31.70
2022-12-05T17:03:25.814Z,31.20
2022-12-05T17:05:47.443Z,31.20
2022-12-05T17:08:14.602Z,31.10
2022-12-05T17:10:43.314Z,31.40
2022-12-05T17:13:15.518Z,31.30
2022-12-05T17:15:42.820Z,31.10
2022-12-05T17:18:31.875Z,31.30
2022-12-05T17:21:01.313Z,31.20
2022-12-05T17:23:28.747Z,30.90
2022-12-05T17:25:58.707Z,30.80
2022-12-05T17:28:26.229Z,30.60
2022-12-05T17:30:53.316Z,31.00
2022-12-05T17:33:20.441Z,31.30
2022-12-05T17:35:47.856Z,31.60
2022-12-05T17:38:14.970Z,31.80
2022-12-05T17:40:42.775Z,32.00
2022-12-05T17:43:13.569Z,31.70
2022-12-05T17:45:41.053Z,31.40
2022-12-05T17:48:13.802Z,31.60
2022-12-05T17:50:46.065Z,31.40
2022-12-05T17:53:15.414Z,31.40
2022-12-05T17:55:42.895Z,31.60
2022-12-05T17:58:11.029Z,31.30
2022-12-05T18:00:38.244Z,31.40
2022-12-05T18:03:05.365Z,31.30
2022-12-05T18:05:32.342Z,31.30
2022-12-05T18:07:59.374Z,31.30
2022-12-05T18:10:26.490Z,31.20
2022-12-05T18:12:53.656Z,31.30
2022-12-05T18:15:20.658Z,31.60
2022-12-05T18:17:47.500Z,31.80
2022-12-05T18:20:15.894Z,32.00
2022-12-05T18:22:43.615Z,31.80
2022-12-05T18:25:11.529Z,31.90
2022-12-05T18:27:38.786Z,32.10
2022-12-05T18:30:08.538Z,32.30
2022-12-05T18:32:35.561Z,32.30
2022-12-05T18:35:06.347Z,32.40
2022-12-05T18:37:39.961Z,32.10
2022-12-05T18:40:08.319Z,32.30
2022-12-05T18:42:35.669Z,32.40
2022-12-05T18:45:03.223Z,32.50
2022-12-05T18:47:30.153Z,32.60
2022-12-05T18:49:57.503Z,32.50
2022-12-05T18:52:24.394Z,32.10
2022-12-05T18:55:09.265Z,32.10
2022-12-05T18:57:38.257Z,31.90
2022-12-05T19:00:06.050Z,31.80
2022-12-05T19:02:32.977Z,31.80
2022-12-05T19:05:00.143Z,31.60
2022-12-05T19:07:27.284Z,31.70
2022-12-05T19:09:54.235Z,31.70
2022-12-05T19:12:21.194Z,31.90
2022-12-05T19:14:48.083Z,32.00
2022-12-05T19:17:15.101Z,31.90
2022-12-05T19:19:42.026Z,32.00
2022-12-05T19:22:08.916Z,32.00
2022-12-05T19:24:37.182Z,32.00
2022-12-05T19:27:04.412Z,31.60
2022-12-05T19:29:31.374Z,31.60
2022-12-05T19:31:58.404Z,31.70
2022-12-05T19:34:25.499Z,31.70
2022-12-05T19:36:52.472Z,31.60
2022-12-05T19:39:23.585Z,31.70
2022-12-05T19:41:51.030Z,31.60
2022-12-05T19:44:18.488Z,31.80
2022-12-05T19:46:45.525Z,31.70
2022-12-05T19:49:14.997Z,31.30
2022-12-05T19:51:42.694Z,31.50
2022-12-05T19:54:11.762Z,31.30
2022-12-05T19:56:39.321Z,31.10
2022-12-05T19:59:08.337Z,31.00
2022-12-05T20:01:38.649Z,31.10
2022-12-05T20:04:08.484Z,31.40
2022-12-05T20:06:44.199Z,31.70
2022-12-05T20:09:13.023Z,31.50
2022-12-05T20:11:42.372Z,31.40
2022-12-05T20:14:11.417Z,31.60
2022-12-05T20:16:38.644Z,31.60
2022-12-05T20:19:06.326Z,31.80
2022-12-05T20:21:34.590Z,31.60
2022-12-05T20:24:04.042Z,31.60
2022-12-05T20:26:33.906Z,31.70
2022-12-05T20:29:01.440Z,31.50
2022-12-05T20:31:36.826Z,31.60
2022-12-05T20:34:04.862Z,31.60
2022-12-05T20:36:34.424Z,31.60
2022-12-05T20:39:07.730Z,31.70
2022-12-05T20:41:35.326Z,31.40
2022-12-05T20:44:05.202Z,31.40
2022-12-05T20:46:32.929Z,31.60
2022-12-05T20:49:01.023Z,31.50
2022-12-05T20:51:33.758Z,31.60
2022-12-05T20:54:02.413Z,31.70
2022-12-05T20:56:34.508Z,31.90
2022-12-05T20:59:03.712Z,31.80
2022-12-05T21:01:34.996Z,31.60
2022-12-05T21:04:03.177Z,31.80
2022-12-05T21:06:33.029Z,32.10
2022-12-05T21:09:01.356Z,32.00
2022-12-05T21:11:29.685Z,32.10
2022-12-05T21:14:00.149Z,32.20
2022-12-05T21:16:28.067Z,32.10
2022-12-05T21:18:56.435Z,31.60
2022-12-05T21:21:26.696Z,31.90
2022-12-05T21:23:59.416Z,31.90
2022-12-05T21:26:29.408Z,31.90
2022-12-05T21:28:56.890Z,31.90
2022-12-05T21:31:26.956Z,31.80
2022-12-05T21:33:56.601Z,31.70
2022-12-05T21:36:24.857Z,31.70
2022-12-05T21:38:56.585Z,31.70
2022-12-05T21:41:27.073Z,31.80
2022-12-05T21:43:55.670Z,31.40
2022-12-05T21:46:24.296Z,31.20
2022-12-05T21:48:51.654Z,31.50
2022-12-05T21:51:18.608Z,31.60
2022-12-05T21:53:45.784Z,31.70
2022-12-05T21:56:18.448Z,31.70
2022-12-05T21:58:46.797Z,31.70
2022-12-05T22:01:18.511Z,31.50
2022-12-05T22:03:46.361Z,31.70
2022-12-05T22:06:15.477Z,31.60
2022-12-05T22:08:43.039Z,31.70
2022-12-05T22:11:11.373Z,31.80
2022-12-05T22:13:39.086Z,31.90
2022-12-05T22:16:07.159Z,31.70
2022-12-05T22:18:34.484Z,31.70
2022-12-05T22:21:15.111Z,31.40
2022-12-05T22:23:42.649Z,31.40
2022-12-05T22:26:12.433Z,31.40
2022-12-05T22:28:40.607Z,31.30
2022-12-05T22:31:12.580Z,31.50
2022-12-05T22:33:39.868Z,31.70
2022-12-05T22:36:10.012Z,31.70
2022-12-05T22:38:39.291Z,31.70
2022-12-05T22:41:08.744Z,31.70
2022-12-05T22:43:37.728Z,31.70
2022-12-05T22:46:09.984Z,31.50
2022-12-05T22:48:37.225Z,31.60
2022-12-05T22:51:05.921Z,31.70
2022-12-05T22:53:33.206Z,31.70
2022-12-05T22:56:09.024Z,31.30
2022-12-05T22:58:36.762Z,31.50
2022-12-05T23:01:15.054Z,31.70
2022-12-05T23:03:43.179Z,31.70
2022-12-05T23:06:11.905Z,31.70
2022-12-05T23:08:40.367Z,31.80
2022-12-05T23:11:08.327Z,32.00
2022-12-05T23:13:36.639Z,32.00
2022-12-05T23:16:35.782Z,32.00
2022-12-05T23:19:04.918Z,32.00
2022-12-05T23:21:40.152Z,32.00
2022-12-05T23:24:10.731Z,32.00
2022-12-05T23:26:43.859Z,32.10
2022-12-05T23:29:12.563Z,32.20
2022-12-05T23:31:40.251Z,32.10
2022-12-05T23:34:07.515Z,32.20
2022-12-05T23:36:35.546Z,32.10
2022-12-05T23:39:02.775Z,32.00
2022-12-05T23:41:29.661Z,32.10
2022-12-05T23:43:56.974Z,32.20
2022-12-05T23:46:26.220Z,32.30
2022-12-05T23:48:53.815Z,32.30
2022-12-05T23:51:25.891Z,32.30
2022-12-05T23:53:55.863Z,32.10
2022-12-05T23:56:28.764Z,32.20
2022-12-05T23:58:56.387Z,32.30
